sensor_id;sensor_type;location;lat;lon;timestamp;temperature;humidity
22426;DHT22;11380;50.822;15.790;2022-11-20T00:00:39;-6.00;99.90
22426;DHT22;11380;50.822;15.790;2022-11-20T00:05:46;-6.10;1.00
22426;DHT22;11380;50.822;15.790;2022-11-20T00:10:52;-6.00;1.00
22426;DHT22;11380;50.822;15.790;2022-11-20T00:15:59;-6.10;1.00
22426;DHT22;11380;50.822;15.790;2022-11-20T00:21:07;-6.30;99.90
22426;DHT22;11380;50.822;15.790;2022-11-20T00:26:15;-6.10;99.90
22426;DHT22;11380;50.822;15.790;2022-11-20T00:31:22;-6.10;99.90
22426;DHT22;11380;50.822;15.790;2022-11-20T00:36:32;-6.30;99.90
22426;DHT22;11380;50.822;15.790;2022-11-20T00:41:37;-6.30;99.90
22426;DHT22;11380;50.822;15.790;2022-11-20T00:46:43;-6.40;99.90
22426;DHT22;11380;50.822;15.790;2022-11-20T00:51:48;-6.60;99.90
22426;DHT22;11380;50.822;15.790;2022-11-20T00:56:53;-6.40;99.90
22426;DHT22;11380;50.822;15.790;2022-11-20T01:01:59;-6.50;99.90
22426;DHT22;11380;50.822;15.790;2022-11-20T01:07:04;-6.30;99.90
22426;DHT22;11380;50.822;15.790;2022-11-20T01:12:10;-6.10;99.90
22426;DHT22;11380;50.822;15.790;2022-11-20T01:17:15;-6.70;99.90
22426;DHT22;11380;50.822;15.790;2022-11-20T01:22:22;-6.70;99.90
22426;DHT22;11380;50.822;15.790;2022-11-20T01:27:27;-6.40;99.90
22426;DHT22;11380;50.822;15.790;2022-11-20T01:32:33;-6.20;99.90
22426;DHT22;11380;50.822;15.790;2022-11-20T01:37:38;-6.50;99.90
22426;DHT22;11380;50.822;15.790;2022-11-20T01:42:47;-6.70;99.90
22426;DHT22;11380;50.822;15.790;2022-11-20T01:48:10;-6.60;1.00
22426;DHT22;11380;50.822;15.790;2022-11-20T01:53:18;-6.40;99.90
22426;DHT22;11380;50.822;15.790;2022-11-20T01:58:27;-6.30;99.90
22426;DHT22;11380;50.822;15.790;2022-11-20T02:03:33;-6.50;99.90
22426;DHT22;11380;50.822;15.790;2022-11-20T02:08:38;-6.50;1.00
22426;DHT22;11380;50.822;15.790;2022-11-20T02:13:44;-6.70;1.00
22426;DHT22;11380;50.822;15.790;2022-11-20T02:18:51;-6.60;1.00
22426;DHT22;11380;50.822;15.790;2022-11-20T02:24:04;-6.60;1.00
22426;DHT22;11380;50.822;15.790;2022-11-20T02:29:11;-6.70;1.00
22426;DHT22;11380;50.822;15.790;2022-11-20T02:34:16;-6.80;99.90
22426;DHT22;11380;50.822;15.790;2022-11-20T02:39:25;-6.60;1.00
22426;DHT22;11380;50.822;15.790;2022-11-20T02:44:31;-6.90;99.90
22426;DHT22;11380;50.822;15.790;2022-11-20T02:49:38;-7.10;99.90
22426;DHT22;11380;50.822;15.790;2022-11-20T02:54:43;-6.90;99.90
22426;DHT22;11380;50.822;15.790;2022-11-20T02:59:48;-6.60;1.00
22426;DHT22;11380;50.822;15.790;2022-11-20T03:04:54;-6.60;1.00
22426;DHT22;11380;50.822;15.790;2022-11-20T03:09:59;-6.60;1.00
22426;DHT22;11380;50.822;15.790;2022-11-20T03:15:05;-7.10;99.90
22426;DHT22;11380;50.822;15.790;2022-11-20T03:20:11;-6.70;99.90
22426;DHT22;11380;50.822;15.790;2022-11-20T03:25:16;-6.80;99.90
22426;DHT22;11380;50.822;15.790;2022-11-20T03:30:22;-7.10;1.00
22426;DHT22;11380;50.822;15.790;2022-11-20T03:35:29;-7.20;99.90
22426;DHT22;11380;50.822;15.790;2022-11-20T03:40:34;-7.60;1.00
22426;DHT22;11380;50.822;15.790;2022-11-20T03:45:39;-7.40;29.00
22426;DHT22;11380;50.822;15.790;2022-11-20T03:50:44;-7.60;1.00
22426;DHT22;11380;50.822;15.790;2022-11-20T03:55:51;-7.60;99.90
22426;DHT22;11380;50.822;15.790;2022-11-20T04:00:56;-7.50;1.00
22426;DHT22;11380;50.822;15.790;2022-11-20T04:06:09;-7.40;1.00
22426;DHT22;11380;50.822;15.790;2022-11-20T04:11:24;-7.20;1.00
22426;DHT22;11380;50.822;15.790;2022-11-20T04:16:32;-7.10;1.00
22426;DHT22;11380;50.822;15.790;2022-11-20T04:21:38;-7.00;1.00
22426;DHT22;11380;50.822;15.790;2022-11-20T04:26:43;-7.10;99.90
22426;DHT22;11380;50.822;15.790;2022-11-20T04:31:48;-6.90;99.90
22426;DHT22;11380;50.822;15.790;2022-11-20T04:36:54;-7.00;99.90
22426;DHT22;11380;50.822;15.790;2022-11-20T04:41:59;-7.20;99.90
22426;DHT22;11380;50.822;15.790;2022-11-20T04:47:22;-7.20;1.00
22426;DHT22;11380;50.822;15.790;2022-11-20T04:52:27;-7.10;1.00
22426;DHT22;11380;50.822;15.790;2022-11-20T04:57:32;-7.00;1.00
22426;DHT22;11380;50.822;15.790;2022-11-20T05:02:38;-7.00;1.00
22426;DHT22;11380;50.822;15.790;2022-11-20T05:07:44;-7.10;99.90
22426;DHT22;11380;50.822;15.790;2022-11-20T05:12:49;-7.10;99.90
22426;DHT22;11380;50.822;15.790;2022-11-20T05:17:55;-6.90;99.90
22426;DHT22;11380;50.822;15.790;2022-11-20T05:23:00;-7.00;99.90
22426;DHT22;11380;50.822;15.790;2022-11-20T05:28:05;-7.00;89.40
22426;DHT22;11380;50.822;15.790;2022-11-20T05:33:10;-7.30;1.00
22426;DHT22;11380;50.822;15.790;2022-11-20T05:38:16;-7.60;99.90
22426;DHT22;11380;50.822;15.790;2022-11-20T05:43:22;-7.40;99.90
22426;DHT22;11380;50.822;15.790;2022-11-20T05:48:27;-7.30;99.90
22426;DHT22;11380;50.822;15.790;2022-11-20T05:53:34;-7.80;1.00
22426;DHT22;11380;50.822;15.790;2022-11-20T05:58:42;-7.70;99.90
22426;DHT22;11380;50.822;15.790;2022-11-20T06:03:48;-7.50;99.90
22426;DHT22;11380;50.822;15.790;2022-11-20T06:08:55;-7.40;99.90
22426;DHT22;11380;50.822;15.790;2022-11-20T06:14:04;-7.30;1.00
22426;DHT22;11380;50.822;15.790;2022-11-20T06:19:09;-7.80;99.90
22426;DHT22;11380;50.822;15.790;2022-11-20T06:24:15;-7.40;1.00
22426;DHT22;11380;50.822;15.790;2022-11-20T06:29:22;-7.60;99.90
22426;DHT22;11380;50.822;15.790;2022-11-20T06:34:29;-7.90;1.00
22426;DHT22;11380;50.822;15.790;2022-11-20T06:39:35;-7.70;1.00
22426;DHT22;11380;50.822;15.790;2022-11-20T06:44:40;-7.50;99.90
22426;DHT22;11380;50.822;15.790;2022-11-20T06:49:45;-7.50;99.90
22426;DHT22;11380;50.822;15.790;2022-11-20T06:54:50;-7.60;99.90
22426;DHT22;11380;50.822;15.790;2022-11-20T06:59:55;-7.30;61.40
22426;DHT22;11380;50.822;15.790;2022-11-20T07:05:01;-7.30;99.90
22426;DHT22;11380;50.822;15.790;2022-11-20T07:10:06;-7.10;99.90
22426;DHT22;11380;50.822;15.790;2022-11-20T07:15:11;-6.80;99.90
22426;DHT22;11380;50.822;15.790;2022-11-20T07:20:16;-6.70;1.00
22426;DHT22;11380;50.822;15.790;2022-11-20T07:25:26;-6.40;1.00
22426;DHT22;11380;50.822;15.790;2022-11-20T07:30:32;-6.10;99.90
22426;DHT22;11380;50.822;15.790;2022-11-20T07:35:37;-5.80;97.10
22426;DHT22;11380;50.822;15.790;2022-11-20T07:40:43;-5.10;1.00
22426;DHT22;11380;50.822;15.790;2022-11-20T07:45:49;-4.60;1.00
22426;DHT22;11380;50.822;15.790;2022-11-20T07:51:00;-4.30;99.90
22426;DHT22;11380;50.822;15.790;2022-11-20T07:56:03;-4.10;1.00
22426;DHT22;11380;50.822;15.790;2022-11-20T08:01:08;-3.80;99.90
22426;DHT22;11380;50.822;15.790;2022-11-20T08:06:13;-3.40;1.00
22426;DHT22;11380;50.822;15.790;2022-11-20T08:11:19;-3.10;1.00
22426;DHT22;11380;50.822;15.790;2022-11-20T08:16:46;-2.60;99.90
22426;DHT22;11380;50.822;15.790;2022-11-20T08:21:52;-2.50;99.90
22426;DHT22;11380;50.822;15.790;2022-11-20T08:26:58;-2.40;99.90
22426;DHT22;11380;50.822;15.790;2022-11-20T08:32:04;-2.40;28.80
22426;DHT22;11380;50.822;15.790;2022-11-20T08:37:11;-1.90;99.90
22426;DHT22;11380;50.822;15.790;2022-11-20T08:42:16;-1.80;1.00
22426;DHT22;11380;50.822;15.790;2022-11-20T08:47:22;-1.60;99.90
22426;DHT22;11380;50.822;15.790;2022-11-20T08:52:27;-1.30;1.00
22426;DHT22;11380;50.822;15.790;2022-11-20T08:57:34;-1.10;1.00
22426;DHT22;11380;50.822;15.790;2022-11-20T09:02:40;-0.90;1.00
22426;DHT22;11380;50.822;15.790;2022-11-20T09:07:45;-1.00;1.00
22426;DHT22;11380;50.822;15.790;2022-11-20T09:12:50;-0.40;99.90
22426;DHT22;11380;50.822;15.790;2022-11-20T09:17:57;-0.90;1.00
22426;DHT22;11380;50.822;15.790;2022-11-20T09:23:03;-0.30;1.00
22426;DHT22;11380;50.822;15.790;2022-11-20T09:28:08;-0.90;17.60
22426;DHT22;11380;50.822;15.790;2022-11-20T09:33:13;-0.10;1.00
22426;DHT22;11380;50.822;15.790;2022-11-20T09:38:18;0.20;99.90
22426;DHT22;11380;50.822;15.790;2022-11-20T09:43:54;0.30;1.00
22426;DHT22;11380;50.822;15.790;2022-11-20T09:49:16;0.30;1.00
22426;DHT22;11380;50.822;15.790;2022-11-20T09:54:21;0.50;99.90
22426;DHT22;11380;50.822;15.790;2022-11-20T09:59:40;1.00;26.20
22426;DHT22;11380;50.822;15.790;2022-11-20T10:04:37;1.30;1.00
22426;DHT22;11380;50.822;15.790;2022-11-20T10:09:57;1.00;1.00
22426;DHT22;11380;50.822;15.790;2022-11-20T10:20:32;1.10;1.00
22426;DHT22;11380;50.822;15.790;2022-11-20T10:26:01;1.70;99.90
22426;DHT22;11380;50.822;15.790;2022-11-20T10:31:14;1.90;1.00
22426;DHT22;11380;50.822;15.790;2022-11-20T10:41:34;1.80;99.90
22426;DHT22;11380;50.822;15.790;2022-11-20T10:46:43;2.20;99.90
22426;DHT22;11380;50.822;15.790;2022-11-20T10:52:39;2.20;99.90
22426;DHT22;11380;50.822;15.790;2022-11-20T10:57:00;2.00;1.00
22426;DHT22;11380;50.822;15.790;2022-11-20T11:02:18;2.10;1.00
22426;DHT22;11380;50.822;15.790;2022-11-20T11:07:27;2.20;99.90
22426;DHT22;11380;50.822;15.790;2022-11-20T11:12:32;2.30;1.00
22426;DHT22;11380;50.822;15.790;2022-11-20T11:17:45;2.50;1.00
22426;DHT22;11380;50.822;15.790;2022-11-20T11:22:49;2.30;1.00
22426;DHT22;11380;50.822;15.790;2022-11-20T11:27:57;2.20;1.00
22426;DHT22;11380;50.822;15.790;2022-11-20T11:33:08;2.10;1.00
22426;DHT22;11380;50.822;15.790;2022-11-20T11:38:43;2.20;1.00
22426;DHT22;11380;50.822;15.790;2022-11-20T11:43:56;2.00;1.00
22426;DHT22;11380;50.822;15.790;2022-11-20T11:49:18;1.90;1.00
22426;DHT22;11380;50.822;15.790;2022-11-20T11:59:46;1.80;1.00
22426;DHT22;11380;50.822;15.790;2022-11-20T12:10:21;1.50;1.00
22426;DHT22;11380;50.822;15.790;2022-11-20T12:15:32;1.60;1.00
22426;DHT22;11380;50.822;15.790;2022-11-20T12:20:41;1.80;1.00
22426;DHT22;11380;50.822;15.790;2022-11-20T12:25:48;1.70;1.00
22426;DHT22;11380;50.822;15.790;2022-11-20T12:31:14;1.70;1.00
22426;DHT22;11380;50.822;15.790;2022-11-20T12:36:26;1.70;1.00
22426;DHT22;11380;50.822;15.790;2022-11-20T12:41:49;1.90;1.00
22426;DHT22;11380;50.822;15.790;2022-11-20T12:47:21;2.00;1.00
22426;DHT22;11380;50.822;15.790;2022-11-20T12:52:51;1.70;1.00
22426;DHT22;11380;50.822;15.790;2022-11-20T12:57:59;2.10;1.00
22426;DHT22;11380;50.822;15.790;2022-11-20T13:08:28;2.10;1.00
22426;DHT22;11380;50.822;15.790;2022-11-20T13:13:40;2.00;1.00
22426;DHT22;11380;50.822;15.790;2022-11-20T13:18:42;1.90;1.00
22426;DHT22;11380;50.822;15.790;2022-11-20T13:23:49;1.60;1.00
22426;DHT22;11380;50.822;15.790;2022-11-20T13:34:25;1.60;1.00
22426;DHT22;11380;50.822;15.790;2022-11-20T13:39:35;1.30;1.00
22426;DHT22;11380;50.822;15.790;2022-11-20T13:44:53;1.10;1.00
22426;DHT22;11380;50.822;15.790;2022-11-20T13:49:57;1.00;1.00
22426;DHT22;11380;50.822;15.790;2022-11-20T13:55:21;0.80;1.00
22426;DHT22;11380;50.822;15.790;2022-11-20T14:00:26;0.80;1.00
22426;DHT22;11380;50.822;15.790;2022-11-20T14:05:34;0.90;1.00
22426;DHT22;11380;50.822;15.790;2022-11-20T14:10:39;0.80;1.00
22426;DHT22;11380;50.822;15.790;2022-11-20T14:15:46;0.80;1.00
22426;DHT22;11380;50.822;15.790;2022-11-20T14:20:51;0.30;1.00
22426;DHT22;11380;50.822;15.790;2022-11-20T14:25:56;0.10;1.00
22426;DHT22;11380;50.822;15.790;2022-11-20T14:31:01;0.00;1.00
22426;DHT22;11380;50.822;15.790;2022-11-20T14:36:15;0.00;1.00
22426;DHT22;11380;50.822;15.790;2022-11-20T14:41:25;0.00;99.90
22426;DHT22;11380;50.822;15.790;2022-11-20T14:46:28;-0.30;1.00
22426;DHT22;11380;50.822;15.790;2022-11-20T14:51:37;-0.50;35.30
22426;DHT22;11380;50.822;15.790;2022-11-20T14:56:54;-0.50;99.90
22426;DHT22;11380;50.822;15.790;2022-11-20T15:02:11;-0.40;1.00
22426;DHT22;11380;50.822;15.790;2022-11-20T15:07:32;-0.40;99.90
22426;DHT22;11380;50.822;15.790;2022-11-20T15:12:39;-0.70;99.90
22426;DHT22;11380;50.822;15.790;2022-11-20T15:17:45;-0.60;1.00
22426;DHT22;11380;50.822;15.790;2022-11-20T15:22:50;-0.60;21.50
22426;DHT22;11380;50.822;15.790;2022-11-20T15:27:57;-0.60;99.90
22426;DHT22;11380;50.822;15.790;2022-11-20T15:33:03;-0.70;99.90
22426;DHT22;11380;50.822;15.790;2022-11-20T15:38:08;-0.70;99.90
22426;DHT22;11380;50.822;15.790;2022-11-20T15:43:13;-1.40;1.00
22426;DHT22;11380;50.822;15.790;2022-11-20T15:48:21;-1.30;1.00
22426;DHT22;11380;50.822;15.790;2022-11-20T15:53:28;-1.30;1.00
22426;DHT22;11380;50.822;15.790;2022-11-20T15:58:33;-1.50;1.00
22426;DHT22;11380;50.822;15.790;2022-11-20T16:03:39;-1.50;16.40
22426;DHT22;11380;50.822;15.790;2022-11-20T16:08:44;-1.80;1.00
22426;DHT22;11380;50.822;15.790;2022-11-20T16:13:50;-1.70;99.90
22426;DHT22;11380;50.822;15.790;2022-11-20T16:19:14;-1.70;94.80
22426;DHT22;11380;50.822;15.790;2022-11-20T16:24:20;-1.70;60.10
22426;DHT22;11380;50.822;15.790;2022-11-20T16:29:26;-1.90;91.00
22426;DHT22;11380;50.822;15.790;2022-11-20T16:34:31;-2.00;99.90
22426;DHT22;11380;50.822;15.790;2022-11-20T16:39:37;-2.10;99.90
22426;DHT22;11380;50.822;15.790;2022-11-20T16:44:45;-2.00;99.90
22426;DHT22;11380;50.822;15.790;2022-11-20T16:49:52;-2.10;99.90
22426;DHT22;11380;50.822;15.790;2022-11-20T16:54:58;-2.00;99.90
22426;DHT22;11380;50.822;15.790;2022-11-20T17:00:04;-2.10;99.90
22426;DHT22;11380;50.822;15.790;2022-11-20T17:05:11;-2.30;99.90
22426;DHT22;11380;50.822;15.790;2022-11-20T17:10:16;-2.30;99.90
22426;DHT22;11380;50.822;15.790;2022-11-20T17:15:21;-2.40;1.00
22426;DHT22;11380;50.822;15.790;2022-11-20T17:20:27;-2.30;99.90
22426;DHT22;11380;50.822;15.790;2022-11-20T17:25:34;-2.50;1.00
22426;DHT22;11380;50.822;15.790;2022-11-20T17:30:39;-2.80;99.90
22426;DHT22;11380;50.822;15.790;2022-11-20T17:35:45;-2.80;1.00
22426;DHT22;11380;50.822;15.790;2022-11-20T17:40:51;-3.00;1.00
22426;DHT22;11380;50.822;15.790;2022-11-20T17:45:58;-2.90;1.00
22426;DHT22;11380;50.822;15.790;2022-11-20T17:51:05;-2.90;1.00
22426;DHT22;11380;50.822;15.790;2022-11-20T17:56:11;-2.80;1.00
22426;DHT22;11380;50.822;15.790;2022-11-20T18:01:35;-3.00;1.00
22426;DHT22;11380;50.822;15.790;2022-11-20T18:06:41;-3.30;1.00
22426;DHT22;11380;50.822;15.790;2022-11-20T18:11:46;-3.70;1.00
22426;DHT22;11380;50.822;15.790;2022-11-20T18:16:54;-3.40;1.00
22426;DHT22;11380;50.822;15.790;2022-11-20T18:22:01;-3.10;1.00
22426;DHT22;11380;50.822;15.790;2022-11-20T18:27:12;-3.20;1.00
22426;DHT22;11380;50.822;15.790;2022-11-20T18:32:15;-3.30;1.00
22426;DHT22;11380;50.822;15.790;2022-11-20T18:37:21;-3.30;1.00
22426;DHT22;11380;50.822;15.790;2022-11-20T18:42:27;-3.30;1.00
22426;DHT22;11380;50.822;15.790;2022-11-20T18:47:49;-3.30;1.00
22426;DHT22;11380;50.822;15.790;2022-11-20T18:52:55;-3.50;1.00
22426;DHT22;11380;50.822;15.790;2022-11-20T18:58:01;-4.00;1.00
22426;DHT22;11380;50.822;15.790;2022-11-20T19:03:06;-3.90;1.00
22426;DHT22;11380;50.822;15.790;2022-11-20T19:08:13;-3.80;1.00
22426;DHT22;11380;50.822;15.790;2022-11-20T19:13:18;-4.10;1.00
22426;DHT22;11380;50.822;15.790;2022-11-20T19:18:24;-4.00;1.00
22426;DHT22;11380;50.822;15.790;2022-11-20T19:23:30;-3.90;1.00
22426;DHT22;11380;50.822;15.790;2022-11-20T19:28:37;-4.30;1.00
22426;DHT22;11380;50.822;15.790;2022-11-20T19:33:43;-4.50;1.00
22426;DHT22;11380;50.822;15.790;2022-11-20T19:38:51;-4.40;1.00
22426;DHT22;11380;50.822;15.790;2022-11-20T19:44:05;-4.70;1.00
22426;DHT22;11380;50.822;15.790;2022-11-20T19:49:07;-4.60;1.00
22426;DHT22;11380;50.822;15.790;2022-11-20T19:54:13;-4.20;1.00
22426;DHT22;11380;50.822;15.790;2022-11-20T19:59:20;-4.20;1.00
22426;DHT22;11380;50.822;15.790;2022-11-20T20:04:27;-4.40;1.00
22426;DHT22;11380;50.822;15.790;2022-11-20T20:09:32;-4.40;1.00
22426;DHT22;11380;50.822;15.790;2022-11-20T20:14:38;-4.60;1.00
22426;DHT22;11380;50.822;15.790;2022-11-20T20:19:43;-4.20;1.00
22426;DHT22;11380;50.822;15.790;2022-11-20T20:24:48;-4.40;1.00
22426;DHT22;11380;50.822;15.790;2022-11-20T20:29:54;-4.00;1.00
22426;DHT22;11380;50.822;15.790;2022-11-20T20:35:01;-4.10;1.00
22426;DHT22;11380;50.822;15.790;2022-11-20T20:40:08;-4.00;1.00
22426;DHT22;11380;50.822;15.790;2022-11-20T20:45:14;-4.20;1.00
22426;DHT22;11380;50.822;15.790;2022-11-20T20:50:21;-4.10;1.00
22426;DHT22;11380;50.822;15.790;2022-11-20T20:55:26;-4.10;1.00
22426;DHT22;11380;50.822;15.790;2022-11-20T21:00:32;-4.60;1.00
22426;DHT22;11380;50.822;15.790;2022-11-20T21:05:37;-4.20;1.00
22426;DHT22;11380;50.822;15.790;2022-11-20T21:10:42;-4.10;1.00
22426;DHT22;11380;50.822;15.790;2022-11-20T21:15:48;-4.00;1.00
22426;DHT22;11380;50.822;15.790;2022-11-20T21:20:55;-4.40;99.90
22426;DHT22;11380;50.822;15.790;2022-11-20T21:26:19;-4.60;1.00
22426;DHT22;11380;50.822;15.790;2022-11-20T21:31:24;-4.60;1.00
22426;DHT22;11380;50.822;15.790;2022-11-20T21:36:30;-4.70;1.00
22426;DHT22;11380;50.822;15.790;2022-11-20T21:41:37;-4.60;1.00
22426;DHT22;11380;50.822;15.790;2022-11-20T21:46:44;-4.40;1.00
22426;DHT22;11380;50.822;15.790;2022-11-20T21:51:50;-5.00;1.00
22426;DHT22;11380;50.822;15.790;2022-11-20T21:56:57;-5.00;99.90
22426;DHT22;11380;50.822;15.790;2022-11-20T22:02:02;-4.80;1.00
22426;DHT22;11380;50.822;15.790;2022-11-20T22:07:07;-5.40;1.00
22426;DHT22;11380;50.822;15.790;2022-11-20T22:12:12;-5.00;1.00
22426;DHT22;11380;50.822;15.790;2022-11-20T22:17:18;-5.40;1.00
22426;DHT22;11380;50.822;15.790;2022-11-20T22:22:24;-5.20;1.00
22426;DHT22;11380;50.822;15.790;2022-11-20T22:27:30;-5.60;1.00
22426;DHT22;11380;50.822;15.790;2022-11-20T22:32:35;-5.60;1.00
22426;DHT22;11380;50.822;15.790;2022-11-20T22:37:41;-5.50;1.00
22426;DHT22;11380;50.822;15.790;2022-11-20T22:42:46;-5.40;1.00
22426;DHT22;11380;50.822;15.790;2022-11-20T22:47:52;-5.30;1.00
22426;DHT22;11380;50.822;15.790;2022-11-20T22:52:57;-5.30;1.00
22426;DHT22;11380;50.822;15.790;2022-11-20T22:58:03;-5.30;1.00
22426;DHT22;11380;50.822;15.790;2022-11-20T23:03:08;-5.80;99.90
22426;DHT22;11380;50.822;15.790;2022-11-20T23:08:14;-5.50;99.90
22426;DHT22;11380;50.822;15.790;2022-11-20T23:13:19;-5.50;1.00
22426;DHT22;11380;50.822;15.790;2022-11-20T23:18:25;-5.50;1.00
22426;DHT22;11380;50.822;15.790;2022-11-20T23:23:30;-5.50;1.00
22426;DHT22;11380;50.822;15.790;2022-11-20T23:28:37;-5.50;1.00
22426;DHT22;11380;50.822;15.790;2022-11-20T23:33:44;-4.70;1.00
22426;DHT22;11380;50.822;15.790;2022-11-20T23:38:49;-4.60;1.00
22426;DHT22;11380;50.822;15.790;2022-11-20T23:43:55;-5.10;1.00
22426;DHT22;11380;50.822;15.790;2022-11-20T23:49:00;-5.20;1.00
22426;DHT22;11380;50.822;15.790;2022-11-20T23:54:05;-5.00;1.00
22426;DHT22;11380;50.822;15.790;2022-11-20T23:59:11;-4.80;1.00
